sensor_id;sensor_type;location;lat;lon;timestamp;pressure;altitude;pressure_sealevel;temperature;humidity
23341;BME280;12239;53.404;23.492;2022-09-09T00:01:26;100051.25;;;8.38;68.59
23341;BME280;12239;53.404;23.492;2022-09-09T00:04:22;100047.38;;;8.37;68.73
23341;BME280;12239;53.404;23.492;2022-09-09T00:07:15;100050.92;;;8.37;68.46
23341;BME280;12239;53.404;23.492;2022-09-09T00:10:17;100056.70;;;8.35;68.58
23341;BME280;12239;53.404;23.492;2022-09-09T00:13:13;100055.13;;;8.32;68.79
23341;BME280;12239;53.404;23.492;2022-09-09T00:16:07;100048.52;;;8.28;68.74
23341;BME280;12239;53.404;23.492;2022-09-09T00:19:01;100045.56;;;8.25;68.85
23341;BME280;12239;53.404;23.492;2022-09-09T00:21:56;100045.98;;;8.23;68.92
23341;BME280;12239;53.404;23.492;2022-09-09T00:24:51;100050.52;;;8.21;68.85
23341;BME280;12239;53.404;23.492;2022-09-09T00:27:41;100045.38;;;8.20;68.91
23341;BME280;12239;53.404;23.492;2022-09-09T00:30:34;100041.73;;;8.19;68.91
23341;BME280;12239;53.404;23.492;2022-09-09T00:33:24;100037.28;;;8.19;68.90
23341;BME280;12239;53.404;23.492;2022-09-09T00:36:04;100037.92;;;8.18;68.97
23341;BME280;12239;53.404;23.492;2022-09-09T00:38:59;100039.10;;;8.19;69.00
23341;BME280;12239;53.404;23.492;2022-09-09T00:41:51;100038.67;;;8.19;68.90
23341;BME280;12239;53.404;23.492;2022-09-09T00:44:52;100038.09;;;8.20;68.71
23341;BME280;12239;53.404;23.492;2022-09-09T00:47:44;100042.58;;;8.18;69.04
23341;BME280;12239;53.404;23.492;2022-09-09T00:50:37;100038.35;;;8.17;69.01
23341;BME280;12239;53.404;23.492;2022-09-09T00:53:33;100048.38;;;8.17;69.05
23341;BME280;12239;53.404;23.492;2022-09-09T00:56:25;100052.39;;;8.19;69.12
23341;BME280;12239;53.404;23.492;2022-09-09T00:59:20;100053.80;;;8.22;68.97
23341;BME280;12239;53.404;23.492;2022-09-09T01:02:13;100061.48;;;8.23;68.67
23341;BME280;12239;53.404;23.492;2022-09-09T01:05:07;100059.83;;;8.25;68.70
23341;BME280;12239;53.404;23.492;2022-09-09T01:07:56;100054.04;;;8.24;68.41
23341;BME280;12239;53.404;23.492;2022-09-09T01:10:48;100047.59;;;8.23;68.57
23341;BME280;12239;53.404;23.492;2022-09-09T01:13:38;100045.80;;;8.21;68.66
23341;BME280;12239;53.404;23.492;2022-09-09T01:16:30;100049.14;;;8.21;68.55
23341;BME280;12239;53.404;23.492;2022-09-09T01:19:24;100039.95;;;8.21;68.76
23341;BME280;12239;53.404;23.492;2022-09-09T01:22:21;100040.06;;;8.20;68.77
23341;BME280;12239;53.404;23.492;2022-09-09T01:25:16;100033.64;;;8.20;68.82
23341;BME280;12239;53.404;23.492;2022-09-09T01:28:08;100034.88;;;8.21;68.68
23341;BME280;12239;53.404;23.492;2022-09-09T01:30:58;100030.59;;;8.21;68.57
23341;BME280;12239;53.404;23.492;2022-09-09T01:33:31;100031.82;;;8.19;68.61
23341;BME280;12239;53.404;23.492;2022-09-09T01:36:23;100038.50;;;8.17;68.84
23341;BME280;12239;53.404;23.492;2022-09-09T01:39:14;100035.38;;;8.15;69.01
23341;BME280;12239;53.404;23.492;2022-09-09T01:42:03;100032.70;;;8.13;69.12
23341;BME280;12239;53.404;23.492;2022-09-09T01:44:53;100040.04;;;8.11;69.28
23341;BME280;12239;53.404;23.492;2022-09-09T01:47:43;100024.36;;;8.08;69.36
23341;BME280;12239;53.404;23.492;2022-09-09T01:50:15;100012.36;;;8.08;69.27
23341;BME280;12239;53.404;23.492;2022-09-09T01:53:05;100015.58;;;8.09;69.13
23341;BME280;12239;53.404;23.492;2022-09-09T01:55:57;100023.67;;;8.12;68.96
23341;BME280;12239;53.404;23.492;2022-09-09T01:58:51;100034.19;;;8.12;69.19
23341;BME280;12239;53.404;23.492;2022-09-09T02:01:48;100028.55;;;8.10;69.21
23341;BME280;12239;53.404;23.492;2022-09-09T02:04:42;100020.02;;;8.07;69.23
23341;BME280;12239;53.404;23.492;2022-09-09T02:07:36;100014.11;;;8.05;69.26
23341;BME280;12239;53.404;23.492;2022-09-09T02:10:11;100015.44;;;8.03;69.48
23341;BME280;12239;53.404;23.492;2022-09-09T02:13:01;100012.11;;;8.02;69.59
23341;BME280;12239;53.404;23.492;2022-09-09T02:15:54;100014.42;;;8.00;69.74
23341;BME280;12239;53.404;23.492;2022-09-09T02:18:45;100012.79;;;7.98;69.73
23341;BME280;12239;53.404;23.492;2022-09-09T02:21:36;100009.69;;;7.95;69.95
23341;BME280;12239;53.404;23.492;2022-09-09T02:24:26;100016.30;;;7.93;70.06
23341;BME280;12239;53.404;23.492;2022-09-09T02:27:16;100015.23;;;7.91;70.11
23341;BME280;12239;53.404;23.492;2022-09-09T02:30:08;100006.80;;;7.90;70.07
23341;BME280;12239;53.404;23.492;2022-09-09T02:32:57;100007.19;;;7.90;70.26
23341;BME280;12239;53.404;23.492;2022-09-09T02:35:49;100001.54;;;7.86;70.48
23341;BME280;12239;53.404;23.492;2022-09-09T02:38:40;100004.15;;;7.86;70.46
23341;BME280;12239;53.404;23.492;2022-09-09T02:41:32;100000.95;;;7.85;70.62
23341;BME280;12239;53.404;23.492;2022-09-09T02:44:22;99994.23;;;7.84;70.77
23341;BME280;12239;53.404;23.492;2022-09-09T02:47:16;99995.62;;;7.83;70.73
23341;BME280;12239;53.404;23.492;2022-09-09T02:50:10;99998.71;;;7.78;70.83
23341;BME280;12239;53.404;23.492;2022-09-09T02:52:52;100001.60;;;7.77;71.13
23341;BME280;12239;53.404;23.492;2022-09-09T02:55:45;100001.38;;;7.77;71.13
23341;BME280;12239;53.404;23.492;2022-09-09T02:58:36;100000.63;;;7.77;71.18
23341;BME280;12239;53.404;23.492;2022-09-09T03:01:25;99998.11;;;7.77;71.15
23341;BME280;12239;53.404;23.492;2022-09-09T03:04:14;99991.41;;;7.77;70.95
23341;BME280;12239;53.404;23.492;2022-09-09T03:07:04;99993.09;;;7.79;71.01
23341;BME280;12239;53.404;23.492;2022-09-09T03:09:53;99988.73;;;7.77;71.11
23341;BME280;12239;53.404;23.492;2022-09-09T03:12:42;99991.35;;;7.74;71.19
23341;BME280;12239;53.404;23.492;2022-09-09T03:15:32;99990.20;;;7.73;71.20
23341;BME280;12239;53.404;23.492;2022-09-09T03:18:22;100003.06;;;7.73;71.21
23341;BME280;12239;53.404;23.492;2022-09-09T03:21:11;99995.89;;;7.74;71.26
23341;BME280;12239;53.404;23.492;2022-09-09T03:24:00;99997.95;;;7.76;71.49
23341;BME280;12239;53.404;23.492;2022-09-09T03:26:51;100004.27;;;7.75;71.39
23341;BME280;12239;53.404;23.492;2022-09-09T03:29:23;99999.64;;;7.74;71.34
23341;BME280;12239;53.404;23.492;2022-09-09T03:32:13;99988.66;;;7.73;71.70
23341;BME280;12239;53.404;23.492;2022-09-09T03:35:06;99996.20;;;7.72;71.48
23341;BME280;12239;53.404;23.492;2022-09-09T03:37:55;99991.92;;;7.73;71.52
23341;BME280;12239;53.404;23.492;2022-09-09T03:40:24;99989.41;;;7.75;71.45
23341;BME280;12239;53.404;23.492;2022-09-09T03:43:14;99986.36;;;7.78;71.26
23341;BME280;12239;53.404;23.492;2022-09-09T03:46:04;99981.86;;;7.81;71.27
23341;BME280;12239;53.404;23.492;2022-09-09T03:48:54;99975.84;;;7.82;71.06
23341;BME280;12239;53.404;23.492;2022-09-09T03:51:43;99978.59;;;7.83;70.98
23341;BME280;12239;53.404;23.492;2022-09-09T03:54:32;99973.13;;;7.84;70.88
23341;BME280;12239;53.404;23.492;2022-09-09T03:57:22;99972.64;;;7.83;70.98
23341;BME280;12239;53.404;23.492;2022-09-09T04:00:02;99973.55;;;7.82;71.17
23341;BME280;12239;53.404;23.492;2022-09-09T04:02:52;99979.98;;;7.83;70.96
23341;BME280;12239;53.404;23.492;2022-09-09T04:05:44;99975.21;;;7.84;70.99
23341;BME280;12239;53.404;23.492;2022-09-09T04:08:33;99972.23;;;7.85;70.94
23341;BME280;12239;53.404;23.492;2022-09-09T04:11:23;99969.81;;;7.86;71.04
23341;BME280;12239;53.404;23.492;2022-09-09T04:14:13;99969.83;;;7.87;70.80
23341;BME280;12239;53.404;23.492;2022-09-09T04:17:02;99973.20;;;7.88;70.86
23341;BME280;12239;53.404;23.492;2022-09-09T04:19:54;99973.31;;;7.89;70.54
23341;BME280;12239;53.404;23.492;2022-09-09T04:22:39;99977.52;;;7.94;70.72
23341;BME280;12239;53.404;23.492;2022-09-09T04:25:29;99977.65;;;7.98;70.39
23341;BME280;12239;53.404;23.492;2022-09-09T04:28:27;99977.23;;;8.00;70.15
23341;BME280;12239;53.404;23.492;2022-09-09T04:31:17;99978.31;;;8.03;70.10
23341;BME280;12239;53.404;23.492;2022-09-09T04:34:08;99976.66;;;8.04;70.19
23341;BME280;12239;53.404;23.492;2022-09-09T04:36:57;99975.64;;;8.06;69.85
23341;BME280;12239;53.404;23.492;2022-09-09T04:39:42;99977.54;;;8.09;69.87
23341;BME280;12239;53.404;23.492;2022-09-09T04:42:35;99979.19;;;8.11;69.94
23341;BME280;12239;53.404;23.492;2022-09-09T04:45:25;99974.17;;;8.14;69.57
23341;BME280;12239;53.404;23.492;2022-09-09T04:48:14;99969.73;;;8.16;69.57
23341;BME280;12239;53.404;23.492;2022-09-09T04:51:05;99975.64;;;8.19;69.38
23341;BME280;12239;53.404;23.492;2022-09-09T04:53:54;99977.38;;;8.20;69.36
23341;BME280;12239;53.404;23.492;2022-09-09T04:56:44;99982.19;;;8.21;69.43
23341;BME280;12239;53.404;23.492;2022-09-09T04:59:34;99986.27;;;8.23;69.40
23341;BME280;12239;53.404;23.492;2022-09-09T05:02:23;99978.39;;;8.24;69.34
23341;BME280;12239;53.404;23.492;2022-09-09T05:05:13;99978.83;;;8.27;69.41
23341;BME280;12239;53.404;23.492;2022-09-09T05:08:03;99978.18;;;8.27;69.46
23341;BME280;12239;53.404;23.492;2022-09-09T05:10:52;99975.94;;;8.25;69.58
23341;BME280;12239;53.404;23.492;2022-09-09T05:13:43;99972.71;;;8.23;69.79
23341;BME280;12239;53.404;23.492;2022-09-09T05:16:32;99970.13;;;8.22;70.00
23341;BME280;12239;53.404;23.492;2022-09-09T05:19:22;99973.03;;;8.23;69.80
23341;BME280;12239;53.404;23.492;2022-09-09T05:22:11;99974.60;;;8.25;70.07
23341;BME280;12239;53.404;23.492;2022-09-09T05:24:43;99969.02;;;8.25;69.83
23341;BME280;12239;53.404;23.492;2022-09-09T05:27:33;99965.86;;;8.27;70.08
23341;BME280;12239;53.404;23.492;2022-09-09T05:30:22;99963.78;;;8.31;69.91
23341;BME280;12239;53.404;23.492;2022-09-09T05:33:14;99964.86;;;8.35;69.65
23341;BME280;12239;53.404;23.492;2022-09-09T05:36:04;99970.93;;;8.37;69.71
23341;BME280;12239;53.404;23.492;2022-09-09T05:38:54;99967.77;;;8.39;69.67
23341;BME280;12239;53.404;23.492;2022-09-09T05:41:43;99964.02;;;8.43;69.95
23341;BME280;12239;53.404;23.492;2022-09-09T05:44:32;99965.40;;;8.47;69.60
23341;BME280;12239;53.404;23.492;2022-09-09T05:47:22;99968.10;;;8.52;69.34
23341;BME280;12239;53.404;23.492;2022-09-09T05:50:11;99965.65;;;8.54;69.32
23341;BME280;12239;53.404;23.492;2022-09-09T05:53:02;99963.34;;;8.56;69.45
23341;BME280;12239;53.404;23.492;2022-09-09T05:55:59;99964.05;;;8.61;69.15
23341;BME280;12239;53.404;23.492;2022-09-09T05:58:48;99967.48;;;8.62;69.02
23341;BME280;12239;53.404;23.492;2022-09-09T06:01:30;99969.90;;;8.66;69.47
23341;BME280;12239;53.404;23.492;2022-09-09T06:04:20;99968.73;;;8.71;69.11
23341;BME280;12239;53.404;23.492;2022-09-09T06:07:12;99972.65;;;8.78;68.91
23341;BME280;12239;53.404;23.492;2022-09-09T06:10:02;99967.34;;;8.83;68.84
23341;BME280;12239;53.404;23.492;2022-09-09T06:12:43;99968.52;;;8.86;68.83
23341;BME280;12239;53.404;23.492;2022-09-09T06:15:32;99970.98;;;8.92;68.59
23341;BME280;12239;53.404;23.492;2022-09-09T06:18:22;99972.56;;;8.99;68.10
23341;BME280;12239;53.404;23.492;2022-09-09T06:21:13;99977.29;;;9.05;67.78
23341;BME280;12239;53.404;23.492;2022-09-09T06:24:04;99972.67;;;9.05;67.72
23341;BME280;12239;53.404;23.492;2022-09-09T06:26:55;99978.69;;;9.03;67.76
23341;BME280;12239;53.404;23.492;2022-09-09T06:29:45;99971.81;;;9.03;68.02
23341;BME280;12239;53.404;23.492;2022-09-09T06:32:34;99975.41;;;9.07;67.90
23341;BME280;12239;53.404;23.492;2022-09-09T06:35:39;99977.61;;;9.11;67.81
23341;BME280;12239;53.404;23.492;2022-09-09T06:38:28;99988.84;;;9.15;68.09
23341;BME280;12239;53.404;23.492;2022-09-09T06:41:07;99979.92;;;9.22;67.82
23341;BME280;12239;53.404;23.492;2022-09-09T06:43:57;99977.17;;;9.26;67.76
23341;BME280;12239;53.404;23.492;2022-09-09T06:46:46;99983.03;;;9.32;67.60
23341;BME280;12239;53.404;23.492;2022-09-09T06:49:36;99982.42;;;9.40;67.23
23341;BME280;12239;53.404;23.492;2022-09-09T06:52:25;99982.21;;;9.46;66.90
23341;BME280;12239;53.404;23.492;2022-09-09T06:55:15;99985.95;;;9.51;67.04
23341;BME280;12239;53.404;23.492;2022-09-09T06:58:08;99991.00;;;9.53;66.98
23341;BME280;12239;53.404;23.492;2022-09-09T07:00:49;99994.70;;;9.54;67.10
23341;BME280;12239;53.404;23.492;2022-09-09T07:03:39;99992.55;;;9.58;67.12
23341;BME280;12239;53.404;23.492;2022-09-09T07:06:29;99995.55;;;9.63;67.16
23341;BME280;12239;53.404;23.492;2022-09-09T07:09:18;99997.63;;;9.70;66.85
23341;BME280;12239;53.404;23.492;2022-09-09T07:12:07;99999.94;;;9.70;66.92
23341;BME280;12239;53.404;23.492;2022-09-09T07:14:57;100007.41;;;9.71;66.88
23341;BME280;12239;53.404;23.492;2022-09-09T07:17:46;100001.27;;;9.78;66.41
23341;BME280;12239;53.404;23.492;2022-09-09T07:20:36;99995.06;;;9.88;66.47
23341;BME280;12239;53.404;23.492;2022-09-09T07:23:17;99997.63;;;9.94;66.01
23341;BME280;12239;53.404;23.492;2022-09-09T07:26:08;99997.88;;;10.01;65.68
23341;BME280;12239;53.404;23.492;2022-09-09T07:28:58;99997.77;;;10.07;65.08
23341;BME280;12239;53.404;23.492;2022-09-09T07:31:48;99999.70;;;10.14;64.86
23341;BME280;12239;53.404;23.492;2022-09-09T07:34:37;99998.83;;;10.21;64.83
23341;BME280;12239;53.404;23.492;2022-09-09T07:37:26;99999.16;;;10.29;64.12
23341;BME280;12239;53.404;23.492;2022-09-09T07:40:16;100005.36;;;10.44;63.92
23341;BME280;12239;53.404;23.492;2022-09-09T07:42:48;100002.28;;;10.55;63.20
23341;BME280;12239;53.404;23.492;2022-09-09T07:45:17;100005.52;;;10.63;62.50
23341;BME280;12239;53.404;23.492;2022-09-09T07:47:54;100007.25;;;10.71;61.96
23341;BME280;12239;53.404;23.492;2022-09-09T07:50:44;100000.27;;;10.76;61.56
23341;BME280;12239;53.404;23.492;2022-09-09T07:53:34;100007.83;;;10.83;61.23
23341;BME280;12239;53.404;23.492;2022-09-09T07:56:24;100001.65;;;10.95;60.70
23341;BME280;12239;53.404;23.492;2022-09-09T07:59:03;100005.96;;;11.04;60.42
23341;BME280;12239;53.404;23.492;2022-09-09T08:01:37;100013.98;;;11.11;60.33
23341;BME280;12239;53.404;23.492;2022-09-09T08:04:27;100010.60;;;11.17;59.89
23341;BME280;12239;53.404;23.492;2022-09-09T08:07:16;100012.24;;;11.27;60.20
23341;BME280;12239;53.404;23.492;2022-09-09T08:10:06;100013.58;;;11.35;60.07
23341;BME280;12239;53.404;23.492;2022-09-09T08:12:56;100013.43;;;11.39;59.57
23341;BME280;12239;53.404;23.492;2022-09-09T08:15:45;100015.97;;;11.45;59.71
23341;BME280;12239;53.404;23.492;2022-09-09T08:18:34;100023.16;;;11.47;59.38
23341;BME280;12239;53.404;23.492;2022-09-09T08:21:24;100026.56;;;11.48;59.56
23341;BME280;12239;53.404;23.492;2022-09-09T08:23:59;100029.59;;;11.45;59.49
23341;BME280;12239;53.404;23.492;2022-09-09T08:26:32;100032.40;;;11.39;59.22
23341;BME280;12239;53.404;23.492;2022-09-09T08:29:22;100038.23;;;11.31;59.41
23341;BME280;12239;53.404;23.492;2022-09-09T08:32:12;100033.88;;;11.22;59.94
23341;BME280;12239;53.404;23.492;2022-09-09T08:35:02;100045.23;;;11.15;60.06
23341;BME280;12239;53.404;23.492;2022-09-09T08:37:54;100047.85;;;11.10;60.37
23341;BME280;12239;53.404;23.492;2022-09-09T08:40:44;100049.95;;;11.05;60.95
23341;BME280;12239;53.404;23.492;2022-09-09T08:43:37;100062.48;;;11.04;61.55
23341;BME280;12239;53.404;23.492;2022-09-09T08:46:29;100062.93;;;11.02;62.17
23341;BME280;12239;53.404;23.492;2022-09-09T08:49:23;100066.86;;;11.02;62.42
23341;BME280;12239;53.404;23.492;2022-09-09T08:52:16;100063.64;;;11.01;62.33
23341;BME280;12239;53.404;23.492;2022-09-09T08:55:12;100060.14;;;11.00;62.88
23341;BME280;12239;53.404;23.492;2022-09-09T08:58:09;100056.66;;;10.98;62.68
23341;BME280;12239;53.404;23.492;2022-09-09T09:01:09;100054.86;;;10.93;62.47
23341;BME280;12239;53.404;23.492;2022-09-09T09:04:10;100058.91;;;10.91;62.71
23341;BME280;12239;53.404;23.492;2022-09-09T09:07:06;100052.24;;;10.90;62.42
23341;BME280;12239;53.404;23.492;2022-09-09T09:10:03;100057.55;;;10.92;62.73
23341;BME280;12239;53.404;23.492;2022-09-09T09:12:54;100057.29;;;10.92;62.24
23341;BME280;12239;53.404;23.492;2022-09-09T09:15:44;100055.98;;;10.93;62.39
23341;BME280;12239;53.404;23.492;2022-09-09T09:18:37;100049.10;;;10.93;62.49
23341;BME280;12239;53.404;23.492;2022-09-09T09:21:28;100051.71;;;10.95;62.38
23341;BME280;12239;53.404;23.492;2022-09-09T09:24:13;100052.14;;;10.98;62.57
23341;BME280;12239;53.404;23.492;2022-09-09T09:27:10;100054.15;;;11.04;62.69
23341;BME280;12239;53.404;23.492;2022-09-09T09:29:41;100057.09;;;11.08;62.50
23341;BME280;12239;53.404;23.492;2022-09-09T09:32:33;100056.19;;;11.11;62.15
23341;BME280;12239;53.404;23.492;2022-09-09T09:35:23;100056.67;;;11.14;62.27
23341;BME280;12239;53.404;23.492;2022-09-09T09:38:15;100056.87;;;11.13;62.04
23341;BME280;12239;53.404;23.492;2022-09-09T09:41:05;100060.05;;;11.15;62.10
23341;BME280;12239;53.404;23.492;2022-09-09T09:43:54;100056.47;;;11.18;62.23
23341;BME280;12239;53.404;23.492;2022-09-09T09:46:43;100053.17;;;11.20;61.75
23341;BME280;12239;53.404;23.492;2022-09-09T09:49:33;100049.88;;;11.22;61.99
23341;BME280;12239;53.404;23.492;2022-09-09T09:52:23;100053.79;;;11.25;61.87
23341;BME280;12239;53.404;23.492;2022-09-09T09:55:13;100055.54;;;11.28;62.76
23341;BME280;12239;53.404;23.492;2022-09-09T09:58:04;100059.48;;;11.34;63.18
23341;BME280;12239;53.404;23.492;2022-09-09T10:00:48;100057.65;;;11.35;63.61
23341;BME280;12239;53.404;23.492;2022-09-09T10:03:38;100061.96;;;11.34;63.95
23341;BME280;12239;53.404;23.492;2022-09-09T10:06:33;100055.06;;;11.33;64.57
23341;BME280;12239;53.404;23.492;2022-09-09T10:09:23;100055.17;;;11.32;64.99
23341;BME280;12239;53.404;23.492;2022-09-09T10:12:16;100054.68;;;11.27;65.60
23341;BME280;12239;53.404;23.492;2022-09-09T10:15:13;100060.64;;;11.23;66.84
23341;BME280;12239;53.404;23.492;2022-09-09T10:18:08;100057.19;;;11.18;67.96
23341;BME280;12239;53.404;23.492;2022-09-09T10:21:06;100060.98;;;11.11;67.98
23341;BME280;12239;53.404;23.492;2022-09-09T10:23:46;100063.17;;;11.08;68.78
23341;BME280;12239;53.404;23.492;2022-09-09T10:26:40;100067.04;;;11.08;69.63
23341;BME280;12239;53.404;23.492;2022-09-09T10:29:37;100067.73;;;11.10;70.09
23341;BME280;12239;53.404;23.492;2022-09-09T10:32:36;100076.07;;;11.11;70.13
23341;BME280;12239;53.404;23.492;2022-09-09T10:35:27;100073.91;;;11.11;69.92
23341;BME280;12239;53.404;23.492;2022-09-09T10:38:18;100071.65;;;11.11;70.31
23341;BME280;12239;53.404;23.492;2022-09-09T10:41:17;100065.02;;;11.12;71.47
23341;BME280;12239;53.404;23.492;2022-09-09T10:44:14;100060.98;;;11.12;71.80
23341;BME280;12239;53.404;23.492;2022-09-09T10:47:15;100060.69;;;11.14;72.30
23341;BME280;12239;53.404;23.492;2022-09-09T10:53:08;100061.93;;;11.16;72.67
23341;BME280;12239;53.404;23.492;2022-09-09T10:56:03;100064.39;;;11.20;73.44
23341;BME280;12239;53.404;23.492;2022-09-09T10:58:56;100059.25;;;11.21;72.90
23341;BME280;12239;53.404;23.492;2022-09-09T11:01:48;100057.48;;;11.21;74.80
23341;BME280;12239;53.404;23.492;2022-09-09T11:04:40;100050.02;;;11.17;75.45
23341;BME280;12239;53.404;23.492;2022-09-09T11:07:33;100047.65;;;11.11;76.71
23341;BME280;12239;53.404;23.492;2022-09-09T11:10:34;100043.92;;;11.03;76.44
23341;BME280;12239;53.404;23.492;2022-09-09T11:13:29;100042.21;;;10.93;77.33
23341;BME280;12239;53.404;23.492;2022-09-09T11:16:24;100050.45;;;10.85;77.42
23341;BME280;12239;53.404;23.492;2022-09-09T11:19:16;100067.50;;;10.85;77.86
23341;BME280;12239;53.404;23.492;2022-09-09T11:22:07;100076.02;;;10.83;78.77
23341;BME280;12239;53.404;23.492;2022-09-09T11:25:05;100085.98;;;10.83;79.28
23341;BME280;12239;53.404;23.492;2022-09-09T11:28:01;100091.09;;;10.83;80.18
23341;BME280;12239;53.404;23.492;2022-09-09T11:31:00;100090.91;;;10.87;80.93
23341;BME280;12239;53.404;23.492;2022-09-09T11:33:55;100093.77;;;10.93;81.60
23341;BME280;12239;53.404;23.492;2022-09-09T11:40:07;100082.71;;;11.08;81.72
23341;BME280;12239;53.404;23.492;2022-09-09T11:43:09;100086.67;;;11.10;82.07
23341;BME280;12239;53.404;23.492;2022-09-09T11:46:01;100085.23;;;11.20;84.01
23341;BME280;12239;53.404;23.492;2022-09-09T11:48:59;100082.73;;;11.28;83.55
23341;BME280;12239;53.404;23.492;2022-09-09T11:51:48;100083.45;;;11.34;84.31
23341;BME280;12239;53.404;23.492;2022-09-09T11:54:44;100079.59;;;11.39;83.61
23341;BME280;12239;53.404;23.492;2022-09-09T11:57:35;100086.52;;;11.41;82.32
23341;BME280;12239;53.404;23.492;2022-09-09T12:00:35;100085.29;;;11.40;82.45
23341;BME280;12239;53.404;23.492;2022-09-09T12:03:38;100092.42;;;11.37;81.86
23341;BME280;12239;53.404;23.492;2022-09-09T12:06:31;100092.88;;;11.32;81.40
23341;BME280;12239;53.404;23.492;2022-09-09T12:09:25;100095.34;;;11.28;81.80
23341;BME280;12239;53.404;23.492;2022-09-09T12:12:24;100097.96;;;11.29;82.32
23341;BME280;12239;53.404;23.492;2022-09-09T12:15:18;100100.08;;;11.29;81.46
23341;BME280;12239;53.404;23.492;2022-09-09T12:17:58;100095.35;;;11.35;81.82
23341;BME280;12239;53.404;23.492;2022-09-09T12:20:52;100090.94;;;11.39;81.34
23341;BME280;12239;53.404;23.492;2022-09-09T12:23:46;100088.15;;;11.45;82.07
23341;BME280;12239;53.404;23.492;2022-09-09T12:26:36;100094.35;;;11.51;82.04
23341;BME280;12239;53.404;23.492;2022-09-09T12:29:30;100090.34;;;11.56;81.64
23341;BME280;12239;53.404;23.492;2022-09-09T12:32:13;100087.38;;;11.60;81.58
23341;BME280;12239;53.404;23.492;2022-09-09T12:35:09;100082.21;;;11.68;81.05
23341;BME280;12239;53.404;23.492;2022-09-09T12:38:00;100082.46;;;11.81;81.50
23341;BME280;12239;53.404;23.492;2022-09-09T12:40:55;100082.09;;;12.01;80.78
23341;BME280;12239;53.404;23.492;2022-09-09T12:43:45;100078.06;;;12.18;77.96
23341;BME280;12239;53.404;23.492;2022-09-09T12:46:21;100078.20;;;12.30;76.33
23341;BME280;12239;53.404;23.492;2022-09-09T12:49:24;100071.77;;;12.42;77.46
23341;BME280;12239;53.404;23.492;2022-09-09T12:52:16;100068.83;;;12.53;73.18
23341;BME280;12239;53.404;23.492;2022-09-09T12:55:15;100071.44;;;12.55;72.04
23341;BME280;12239;53.404;23.492;2022-09-09T12:58:05;100073.91;;;12.60;73.11
23341;BME280;12239;53.404;23.492;2022-09-09T13:00:55;100076.76;;;12.65;72.46
23341;BME280;12239;53.404;23.492;2022-09-09T13:03:45;100076.30;;;12.68;73.03
23341;BME280;12239;53.404;23.492;2022-09-09T13:06:35;100074.23;;;12.69;71.32
23341;BME280;12239;53.404;23.492;2022-09-09T13:09:24;100070.94;;;12.73;70.91
23341;BME280;12239;53.404;23.492;2022-09-09T13:12:15;100070.71;;;12.78;69.60
23341;BME280;12239;53.404;23.492;2022-09-09T13:15:09;100073.39;;;12.83;68.84
23341;BME280;12239;53.404;23.492;2022-09-09T13:18:02;100077.85;;;12.89;67.65
23341;BME280;12239;53.404;23.492;2022-09-09T13:20:53;100073.61;;;12.95;68.51
23341;BME280;12239;53.404;23.492;2022-09-09T13:23:49;100074.55;;;13.04;67.60
23341;BME280;12239;53.404;23.492;2022-09-09T13:26:26;100075.36;;;13.09;67.17
23341;BME280;12239;53.404;23.492;2022-09-09T13:29:17;100082.31;;;13.09;67.73
23341;BME280;12239;53.404;23.492;2022-09-09T13:32:12;100083.96;;;13.00;66.43
23341;BME280;12239;53.404;23.492;2022-09-09T13:37:50;100082.25;;;12.75;69.33
23341;BME280;12239;53.404;23.492;2022-09-09T13:40:40;100083.89;;;12.65;69.52
23341;BME280;12239;53.404;23.492;2022-09-09T13:43:29;100077.80;;;12.57;71.04
23341;BME280;12239;53.404;23.492;2022-09-09T13:46:24;100076.39;;;12.52;71.83
23341;BME280;12239;53.404;23.492;2022-09-09T13:49:21;100076.02;;;12.42;71.03
23341;BME280;12239;53.404;23.492;2022-09-09T13:52:12;100078.52;;;12.32;72.40
23341;BME280;12239;53.404;23.492;2022-09-09T13:55:02;100073.34;;;12.23;74.00
23341;BME280;12239;53.404;23.492;2022-09-09T13:57:52;100076.84;;;12.18;74.41
23341;BME280;12239;53.404;23.492;2022-09-09T14:00:42;100083.85;;;12.13;75.43
23341;BME280;12239;53.404;23.492;2022-09-09T14:03:32;100088.75;;;12.08;75.22
23341;BME280;12239;53.404;23.492;2022-09-09T14:06:22;100090.36;;;12.04;75.58
23341;BME280;12239;53.404;23.492;2022-09-09T14:09:13;100095.10;;;11.98;75.16
23341;BME280;12239;53.404;23.492;2022-09-09T14:12:03;100099.77;;;11.95;75.34
23341;BME280;12239;53.404;23.492;2022-09-09T14:14:52;100102.80;;;11.93;75.58
23341;BME280;12239;53.404;23.492;2022-09-09T14:17:42;100101.02;;;11.90;76.58
23341;BME280;12239;53.404;23.492;2022-09-09T14:20:31;100093.38;;;11.85;76.28
23341;BME280;12239;53.404;23.492;2022-09-09T14:23:21;100097.09;;;11.78;76.70
23341;BME280;12239;53.404;23.492;2022-09-09T14:26:12;100096.41;;;11.69;74.81
23341;BME280;12239;53.404;23.492;2022-09-09T14:29:02;100099.21;;;11.64;75.76
23341;BME280;12239;53.404;23.492;2022-09-09T14:31:51;100102.44;;;11.59;76.59
23341;BME280;12239;53.404;23.492;2022-09-09T14:34:40;100099.54;;;11.56;76.62
23341;BME280;12239;53.404;23.492;2022-09-09T14:37:29;100104.58;;;11.53;76.95
23341;BME280;12239;53.404;23.492;2022-09-09T14:40:19;100097.55;;;11.51;76.16
23341;BME280;12239;53.404;23.492;2022-09-09T14:43:10;100097.56;;;11.50;76.40
23341;BME280;12239;53.404;23.492;2022-09-09T14:46:05;100099.08;;;11.49;76.86
23341;BME280;12239;53.404;23.492;2022-09-09T14:48:55;100098.63;;;11.50;76.23
23341;BME280;12239;53.404;23.492;2022-09-09T14:51:40;100098.60;;;11.48;76.32
23341;BME280;12239;53.404;23.492;2022-09-09T14:54:29;100097.92;;;11.43;76.99
23341;BME280;12239;53.404;23.492;2022-09-09T14:57:18;100103.96;;;11.44;76.70